PWSweather.com
Personal Weather Stations
Station Observations
KILMORRI1
Goose Lake, Morris, IL 60450

Goose LakeMorris, IL 60450

Lat: 41.34, Lon: -88.3

Elevation: 523

Station Type:

www.gooselakeweather.com

High Low Average
Temperature 90.9°F32.7°C 71.9°F22.2°C 79.6°F26.4°C
Dew Point 80.6°F27.0°C 69.5°F20.8°C 73.9°F23.3°C
Winds 10.4 mph 16.7 kmh Calm Calm 3.0 mph S4.8 kmh S
Wind Gusts 18.4 mph29.6 kmh 1.2 mph1.9 kmh 6.0 mph9.7 kmh
Humidity 92% 67% 83%
Pressure 29.89 in1012.2 mb 29.73 in1006.8 mb -
Precipitation 0.07 in1.8 mm - -
Hour Temp Dew Point Humidity Winds Wind Gusts Pressure Precip Precip Rate Daily Precip Total
12:00 AM 78.8°F26.0°C 73.9°F23.3°C 85% 1.2 mph SSE1.9 kmh SSE 4.6 mph7.4 kmh 29.87 in1011.5 mb - 0.00 in0.0 mm 0.00 in0.0 mm
12:10 AM 78.6°F25.9°C 73.4°F23.0°C 84% 2.3 mph S3.7 kmh S 3.5 mph5.6 kmh 29.88 in1011.9 mb - 0.00 in0.0 mm 0.00 in0.0 mm
12:30 AM 78.3°F25.7°C 73.0°F22.8°C 84% 2.3 mph SSE3.7 kmh SSE 3.5 mph5.6 kmh 29.87 in1011.5 mb - 0.00 in0.0 mm 0.00 in0.0 mm
12:40 AM 77.7°F25.4°C 72.8°F22.7°C 85% 2.3 mph SSE3.7 kmh SSE 3.5 mph5.6 kmh 29.87 in1011.5 mb - 0.00 in0.0 mm 0.00 in0.0 mm
12:50 AM 78.0°F25.6°C 72.8°F22.7°C 84% 2.3 mph S3.7 kmh S 4.6 mph7.4 kmh 29.87 in1011.5 mb - 0.00 in0.0 mm 0.00 in0.0 mm
01:00 AM 78.1°F25.6°C 72.9°F22.7°C 84% 2.3 mph S3.7 kmh S 3.5 mph5.6 kmh 29.88 in1011.9 mb - 0.00 in0.0 mm 0.00 in0.0 mm
01:10 AM 78.0°F25.6°C 72.8°F22.7°C 84% 2.3 mph S3.7 kmh S 3.5 mph5.6 kmh 29.87 in1011.5 mb - 0.00 in0.0 mm 0.00 in0.0 mm
01:20 AM 77.8°F25.4°C 72.6°F22.6°C 84% 2.3 mph S3.7 kmh S 4.6 mph7.4 kmh 29.88 in1011.9 mb - 0.00 in0.0 mm 0.00 in0.0 mm
01:30 AM 77.7°F25.4°C 72.8°F22.7°C 85% 2.3 mph S3.7 kmh S 4.6 mph7.4 kmh 29.88 in1011.9 mb - 0.00 in0.0 mm 0.00 in0.0 mm
01:40 AM 77.4°F25.2°C 72.5°F22.5°C 85% 3.5 mph S5.6 kmh S 5.8 mph9.3 kmh 29.87 in1011.5 mb - 0.00 in0.0 mm 0.00 in0.0 mm
01:50 AM 77.3°F25.2°C 72.4°F22.4°C 85% 3.5 mph S5.6 kmh S 10.4 mph16.7 kmh 29.87 in1011.5 mb - 0.00 in0.0 mm 0.00 in0.0 mm
02:00 AM 77.3°F25.2°C 72.4°F22.4°C 85% 1.2 mph S1.9 kmh S 1.2 mph1.9 kmh 29.87 in1011.5 mb - 0.00 in0.0 mm 0.00 in0.0 mm
02:10 AM 76.5°F24.7°C 72.4°F22.4°C 87% 1.2 mph SSE1.9 kmh SSE 1.2 mph1.9 kmh 29.87 in1011.5 mb - 0.00 in0.0 mm 0.00 in0.0 mm
02:20 AM 76.8°F24.9°C 72.6°F22.6°C 87% 1.2 mph S1.9 kmh S 1.2 mph1.9 kmh 29.87 in1011.5 mb - 0.00 in0.0 mm 0.00 in0.0 mm
02:30 AM 76.8°F24.9°C 72.3°F22.4°C 86% 1.2 mph SSE1.9 kmh SSE 2.3 mph3.7 kmh 29.86 in1011.2 mb - 0.00 in0.0 mm 0.00 in0.0 mm
02:40 AM 76.7°F24.8°C 72.5°F22.5°C 87% 1.2 mph SSW1.9 kmh SSW 4.6 mph7.4 kmh 29.86 in1011.2 mb - 0.00 in0.0 mm 0.00 in0.0 mm
02:50 AM 76.6°F24.8°C 72.5°F22.5°C 87% 2.3 mph S3.7 kmh S 3.5 mph5.6 kmh 29.86 in1011.2 mb - 0.00 in0.0 mm 0.00 in0.0 mm
03:00 AM 76.7°F24.8°C 72.2°F22.3°C 86% 2.3 mph SSW3.7 kmh SSW 6.9 mph11.1 kmh 29.86 in1011.2 mb - 0.00 in0.0 mm 0.00 in0.0 mm
03:10 AM 76.8°F24.9°C 72.3°F22.4°C 86% 2.3 mph SW3.7 kmh SW 3.5 mph5.6 kmh 29.85 in1010.8 mb - 0.00 in0.0 mm 0.00 in0.0 mm
03:20 AM 76.7°F24.8°C 72.2°F22.3°C 86% 2.3 mph S3.7 kmh S 2.3 mph3.7 kmh 29.85 in1010.8 mb - 0.00 in0.0 mm 0.00 in0.0 mm
03:30 AM 76.5°F24.7°C 72.0°F22.2°C 86% 1.2 mph SSW1.9 kmh SSW 3.5 mph5.6 kmh 29.84 in1010.5 mb - 0.00 in0.0 mm 0.00 in0.0 mm
03:40 AM 76.5°F24.7°C 72.0°F22.2°C 86% 2.3 mph SE3.7 kmh SE 2.3 mph3.7 kmh 29.84 in1010.5 mb - 0.00 in0.0 mm 0.00 in0.0 mm
03:50 AM 76.3°F24.6°C 72.1°F22.3°C 87% Calm Calm 2.3 mph3.7 kmh 29.84 in1010.5 mb - 0.00 in0.0 mm 0.00 in0.0 mm
04:00 AM 75.9°F24.4°C 71.8°F22.1°C 87% 1.2 mph SSE1.9 kmh SSE 2.3 mph3.7 kmh 29.85 in1010.8 mb - 0.00 in0.0 mm 0.00 in0.0 mm
04:20 AM 75.6°F24.2°C 71.8°F22.1°C 88% 1.2 mph S1.9 kmh S 4.6 mph7.4 kmh 29.85 in1010.8 mb - 0.00 in0.0 mm 0.00 in0.0 mm
04:30 AM 75.6°F24.2°C 71.8°F22.1°C 88% 1.2 mph SSW1.9 kmh SSW 2.3 mph3.7 kmh 29.84 in1010.5 mb - 0.00 in0.0 mm 0.00 in0.0 mm
04:40 AM 75.8°F24.3°C 71.7°F22.1°C 87% 1.2 mph S1.9 kmh S 3.5 mph5.6 kmh 29.84 in1010.5 mb - 0.00 in0.0 mm 0.00 in0.0 mm
04:50 AM 75.6°F24.2°C 71.8°F22.1°C 88% 1.2 mph S1.9 kmh S 3.5 mph5.6 kmh 29.85 in1010.8 mb - 0.00 in0.0 mm 0.00 in0.0 mm
05:00 AM 75.1°F23.9°C 71.3°F21.8°C 88% 1.2 mph SE1.9 kmh SE 2.3 mph3.7 kmh 29.84 in1010.5 mb - 0.00 in0.0 mm 0.00 in0.0 mm
05:10 AM 75.1°F23.9°C 71.6°F22.0°C 89% 2.3 mph S3.7 kmh S 6.9 mph11.1 kmh 29.84 in1010.5 mb - 0.00 in0.0 mm 0.00 in0.0 mm
05:20 AM 75.5°F24.2°C 71.7°F22.1°C 88% 2.3 mph S3.7 kmh S 4.6 mph7.4 kmh 29.84 in1010.5 mb - 0.00 in0.0 mm 0.00 in0.0 mm
05:30 AM 75.7°F24.3°C 71.9°F22.2°C 88% 1.2 mph SSE1.9 kmh SSE 3.5 mph5.6 kmh 29.84 in1010.5 mb - 0.00 in0.0 mm 0.00 in0.0 mm
05:40 AM 75.7°F24.3°C 71.9°F22.2°C 88% 1.2 mph S1.9 kmh S 4.6 mph7.4 kmh 29.84 in1010.5 mb - 0.00 in0.0 mm 0.00 in0.0 mm
05:50 AM 75.9°F24.4°C 72.1°F22.3°C 88% 1.2 mph SSE1.9 kmh SSE 2.3 mph3.7 kmh 29.84 in1010.5 mb - 0.00 in0.0 mm 0.00 in0.0 mm
06:00 AM 75.8°F24.3°C 72.0°F22.2°C 88% 2.3 mph S3.7 kmh S 3.5 mph5.6 kmh 29.85 in1010.8 mb - 0.00 in0.0 mm 0.00 in0.0 mm
06:10 AM 76.1°F24.5°C 72.3°F22.4°C 88% 2.3 mph S3.7 kmh S 5.8 mph9.3 kmh 29.85 in1010.8 mb - 0.00 in0.0 mm 0.00 in0.0 mm
06:20 AM 76.3°F24.6°C 72.5°F22.5°C 88% 2.3 mph SSE3.7 kmh SSE 3.5 mph5.6 kmh 29.85 in1010.8 mb - 0.00 in0.0 mm 0.00 in0.0 mm
06:30 AM 76.5°F24.7°C 72.3°F22.4°C 87% 2.3 mph SSE3.7 kmh SSE 5.8 mph9.3 kmh 29.85 in1010.8 mb - 0.00 in0.0 mm 0.00 in0.0 mm
06:40 AM 76.6°F24.8°C 72.4°F22.4°C 87% 2.3 mph SE3.7 kmh SE 4.6 mph7.4 kmh 29.85 in1010.8 mb - 0.00 in0.0 mm 0.00 in0.0 mm
06:50 AM 76.8°F24.9°C 72.6°F22.6°C 87% 2.3 mph SSE3.7 kmh SSE 4.6 mph7.4 kmh 29.85 in1010.8 mb - 0.00 in0.0 mm 0.00 in0.0 mm
07:00 AM 77.1°F25.1°C 72.6°F22.6°C 86% 1.2 mph SSW1.9 kmh SSW 4.6 mph7.4 kmh 29.85 in1010.8 mb - 0.00 in0.0 mm 0.00 in0.0 mm
07:10 AM 77.3°F25.2°C 72.8°F22.7°C 86% 2.3 mph S3.7 kmh S 4.6 mph7.4 kmh 29.85 in1010.8 mb - 0.00 in0.0 mm 0.00 in0.0 mm
07:20 AM 77.9°F25.5°C 73.0°F22.8°C 85% 2.3 mph SE3.7 kmh SE 3.5 mph5.6 kmh 29.85 in1010.8 mb - 0.00 in0.0 mm 0.00 in0.0 mm
07:30 AM 78.9°F26.1°C 74.0°F23.3°C 85% 2.3 mph SSE3.7 kmh SSE 3.5 mph5.6 kmh 29.84 in1010.5 mb - 0.00 in0.0 mm 0.00 in0.0 mm
07:40 AM 79.1°F26.2°C 73.8°F23.2°C 84% 2.3 mph S3.7 kmh S 4.6 mph7.4 kmh 29.84 in1010.5 mb - 0.00 in0.0 mm 0.00 in0.0 mm
07:50 AM 79.1°F26.2°C 73.9°F23.3°C 84% 2.3 mph SSW3.7 kmh SSW 6.9 mph11.1 kmh 29.84 in1010.5 mb - 0.00 in0.0 mm 0.00 in0.0 mm
08:00 AM 79.4°F26.3°C 74.1°F23.4°C 84% 2.3 mph S3.7 kmh S 3.5 mph5.6 kmh 29.83 in1010.2 mb - 0.00 in0.0 mm 0.00 in0.0 mm
08:20 AM 80.7°F27.1°C 74.3°F23.5°C 81% 3.5 mph SE5.6 kmh SE 5.8 mph9.3 kmh 29.82 in1009.8 mb - 0.00 in0.0 mm 0.00 in0.0 mm
08:30 AM 80.8°F27.1°C 74.8°F23.8°C 82% 2.3 mph S3.7 kmh S 3.5 mph5.6 kmh 29.82 in1009.8 mb - 0.00 in0.0 mm 0.00 in0.0 mm
08:40 AM 81.6°F27.6°C 75.5°F24.2°C 82% 1.2 mph SSE1.9 kmh SSE 3.5 mph5.6 kmh 29.82 in1009.8 mb - 0.00 in0.0 mm 0.00 in0.0 mm
08:50 AM 82.2°F27.9°C 75.8°F24.3°C 81% 3.5 mph SSW5.6 kmh SSW 6.9 mph11.1 kmh 29.82 in1009.8 mb - 0.00 in0.0 mm 0.00 in0.0 mm
09:00 AM 82.7°F28.2°C 75.9°F24.4°C 80% 3.5 mph S5.6 kmh S 8.1 mph13.0 kmh 29.82 in1009.8 mb - 0.00 in0.0 mm 0.00 in0.0 mm
09:10 AM 83.4°F28.6°C 77.0°F25.0°C 81% 3.5 mph S5.6 kmh S 8.1 mph13.0 kmh 29.82 in1009.8 mb - 0.00 in0.0 mm 0.00 in0.0 mm
09:20 AM 84.2°F29.0°C 77.7°F25.4°C 81% 3.5 mph S5.6 kmh S 10.4 mph16.7 kmh 29.82 in1009.8 mb - 0.00 in0.0 mm 0.00 in0.0 mm
09:30 AM 84.6°F29.2°C 77.0°F25.0°C 78% 4.6 mph SSW7.4 kmh SSW 6.9 mph11.1 kmh 29.82 in1009.8 mb - 0.00 in0.0 mm 0.00 in0.0 mm
09:40 AM 84.6°F29.2°C 76.2°F24.6°C 76% 5.8 mph SSW9.3 kmh SSW 10.4 mph16.7 kmh 29.82 in1009.8 mb - 0.00 in0.0 mm 0.00 in0.0 mm
09:50 AM 84.3°F29.1°C 77.1°F25.1°C 79% 4.6 mph S7.4 kmh S 12.7 mph20.4 kmh 29.81 in1009.5 mb - 0.00 in0.0 mm 0.00 in0.0 mm
10:00 AM 83.6°F28.7°C 76.7°F24.8°C 80% 4.6 mph SW7.4 kmh SW 4.6 mph7.4 kmh 29.82 in1009.8 mb - 0.00 in0.0 mm 0.00 in0.0 mm
10:10 AM 83.4°F28.6°C 76.9°F24.9°C 81% 3.5 mph SSW5.6 kmh SSW 6.9 mph11.1 kmh 29.82 in1009.8 mb - 0.00 in0.0 mm 0.00 in0.0 mm
10:20 AM 83.6°F28.7°C 76.8°F24.9°C 80% 2.3 mph S3.7 kmh S 4.6 mph7.4 kmh 29.82 in1009.8 mb - 0.00 in0.0 mm 0.00 in0.0 mm
10:30 AM 84.4°F29.1°C 77.5°F25.3°C 80% 3.5 mph SSE5.6 kmh SSE 3.5 mph5.6 kmh 29.82 in1009.8 mb - 0.00 in0.0 mm 0.00 in0.0 mm
10:40 AM 85.0°F29.4°C 77.7°F25.4°C 79% 3.5 mph S5.6 kmh S 5.8 mph9.3 kmh 29.82 in1009.8 mb - 0.00 in0.0 mm 0.00 in0.0 mm
10:50 AM 85.5°F29.7°C 77.4°F25.2°C 77% 4.6 mph SSW7.4 kmh SSW 6.9 mph11.1 kmh 29.82 in1009.8 mb - 0.00 in0.0 mm 0.00 in0.0 mm
11:00 AM 86.2°F30.1°C 77.7°F25.4°C 76% 6.9 mph S11.1 kmh S 11.5 mph18.5 kmh 29.82 in1009.8 mb - 0.00 in0.0 mm 0.00 in0.0 mm
11:10 AM 86.3°F30.2°C 78.2°F25.7°C 77% 4.6 mph SW7.4 kmh SW 10.4 mph16.7 kmh 29.81 in1009.5 mb - 0.00 in0.0 mm 0.00 in0.0 mm
11:20 AM 86.8°F30.4°C 78.3°F25.7°C 76% 5.8 mph S9.3 kmh S 10.4 mph16.7 kmh 29.81 in1009.5 mb - 0.00 in0.0 mm 0.00 in0.0 mm
11:30 AM 87.4°F30.8°C 78.9°F26.1°C 76% 5.8 mph SSE9.3 kmh SSE 11.5 mph18.5 kmh 29.80 in1009.1 mb - 0.00 in0.0 mm 0.00 in0.0 mm
11:40 AM 86.6°F30.3°C 77.7°F25.4°C 75% 8.1 mph SSW13.0 kmh SSW 13.8 mph22.2 kmh 29.80 in1009.1 mb - 0.00 in0.0 mm 0.00 in0.0 mm
11:50 AM 87.1°F30.6°C 78.6°F25.9°C 76% 5.8 mph SSW9.3 kmh SSW 9.2 mph14.8 kmh 29.80 in1009.1 mb - 0.00 in0.0 mm 0.00 in0.0 mm
12:00 PM 88.4°F31.3°C 79.1°F26.2°C 74% 3.5 mph S5.6 kmh S 8.1 mph13.0 kmh 29.79 in1008.8 mb - 0.00 in0.0 mm 0.00 in0.0 mm
12:10 PM 88.1°F31.2°C 78.4°F25.8°C 73% 6.9 mph S11.1 kmh S 13.8 mph22.2 kmh 29.79 in1008.8 mb - 0.00 in0.0 mm 0.00 in0.0 mm
12:20 PM 88.1°F31.2°C 79.6°F26.4°C 76% 6.9 mph SSW11.1 kmh SSW 11.5 mph18.5 kmh 29.79 in1008.8 mb - 0.00 in0.0 mm 0.00 in0.0 mm
12:30 PM 88.9°F31.6°C 79.5°F26.4°C 74% 3.5 mph S5.6 kmh S 8.1 mph13.0 kmh 29.79 in1008.8 mb - 0.00 in0.0 mm 0.00 in0.0 mm
12:40 PM 88.9°F31.6°C 79.1°F26.2°C 73% 3.5 mph S5.6 kmh S 9.2 mph14.8 kmh 29.79 in1008.8 mb - 0.00 in0.0 mm 0.00 in0.0 mm
12:50 PM 89.4°F31.9°C 80.0°F26.7°C 74% 5.8 mph SSW9.3 kmh SSW 8.1 mph13.0 kmh 29.78 in1008.5 mb - 0.00 in0.0 mm 0.00 in0.0 mm
01:00 PM 89.2°F31.8°C 79.8°F26.6°C 74% 4.6 mph S7.4 kmh S 11.5 mph18.5 kmh 29.77 in1008.1 mb - 0.00 in0.0 mm 0.00 in0.0 mm
01:10 PM 90.4°F32.4°C 80.6°F27.0°C 73% 8.1 mph S13.0 kmh S 12.7 mph20.4 kmh 29.77 in1008.1 mb - 0.00 in0.0 mm 0.00 in0.0 mm
01:20 PM 89.9°F32.2°C 80.1°F26.7°C 73% 5.8 mph SSW9.3 kmh SSW 8.1 mph13.0 kmh 29.76 in1007.8 mb - 0.00 in0.0 mm 0.00 in0.0 mm
01:30 PM 89.9°F32.2°C 79.2°F26.2°C 71% 8.1 mph S13.0 kmh S 18.4 mph29.6 kmh 29.76 in1007.8 mb - 0.00 in0.0 mm 0.00 in0.0 mm
01:40 PM 90.5°F32.5°C 80.2°F26.8°C 72% 6.9 mph SSW11.1 kmh SSW 11.5 mph18.5 kmh 29.76 in1007.8 mb - 0.00 in0.0 mm 0.00 in0.0 mm
01:50 PM 90.1°F32.3°C 79.4°F26.3°C 71% 4.6 mph S7.4 kmh S 15.0 mph24.1 kmh 29.76 in1007.8 mb - 0.00 in0.0 mm 0.00 in0.0 mm
02:00 PM 90.0°F32.2°C 79.8°F26.6°C 72% 3.5 mph S5.6 kmh S 5.8 mph9.3 kmh 29.75 in1007.5 mb - 0.00 in0.0 mm 0.00 in0.0 mm
02:10 PM 90.4°F32.4°C 79.3°F26.3°C 70% 4.6 mph S7.4 kmh S 3.5 mph5.6 kmh 29.74 in1007.1 mb - 0.00 in0.0 mm 0.00 in0.0 mm
02:20 PM 89.9°F32.2°C 78.8°F26.0°C 70% 4.6 mph S7.4 kmh S 6.9 mph11.1 kmh 29.74 in1007.1 mb - 0.00 in0.0 mm 0.00 in0.0 mm
02:30 PM 90.2°F32.3°C 79.1°F26.2°C 70% 6.9 mph S11.1 kmh S 12.7 mph20.4 kmh 29.73 in1006.8 mb - 0.00 in0.0 mm 0.00 in0.0 mm
02:40 PM 90.4°F32.4°C 78.4°F25.8°C 68% 8.1 mph S13.0 kmh S 11.5 mph18.5 kmh 29.73 in1006.8 mb - 0.00 in0.0 mm 0.00 in0.0 mm
02:50 PM 90.6°F32.6°C 78.6°F25.9°C 68% 4.6 mph SW7.4 kmh SW 4.6 mph7.4 kmh 29.74 in1007.1 mb - 0.00 in0.0 mm 0.00 in0.0 mm
03:00 PM 90.2°F32.3°C 78.2°F25.7°C 68% 4.6 mph S7.4 kmh S 8.1 mph13.0 kmh 29.74 in1007.1 mb - 0.00 in0.0 mm 0.00 in0.0 mm
03:10 PM 90.9°F32.7°C 78.9°F26.1°C 68% 5.8 mph S9.3 kmh S 6.9 mph11.1 kmh 29.75 in1007.5 mb - 0.00 in0.0 mm 0.00 in0.0 mm
03:20 PM 88.5°F31.4°C 76.1°F24.5°C 67% 4.6 mph S7.4 kmh S 6.9 mph11.1 kmh 29.75 in1007.5 mb - 0.00 in0.0 mm 0.00 in0.0 mm
03:30 PM 87.6°F30.9°C 76.2°F24.6°C 69% 3.5 mph SW5.6 kmh SW 8.1 mph13.0 kmh 29.75 in1007.5 mb - 0.00 in0.0 mm 0.00 in0.0 mm
03:40 PM 90.6°F32.6°C 78.6°F25.9°C 68% 6.9 mph SSW11.1 kmh SSW 9.2 mph14.8 kmh 29.75 in1007.5 mb - 0.00 in0.0 mm 0.00 in0.0 mm
03:50 PM 89.0°F31.7°C 77.5°F25.3°C 69% 6.9 mph SW11.1 kmh SW 11.5 mph18.5 kmh 29.75 in1007.5 mb - 0.00 in0.0 mm 0.00 in0.0 mm
04:00 PM 89.3°F31.8°C 76.9°F24.9°C 67% 8.1 mph SW13.0 kmh SW 13.8 mph22.2 kmh 29.75 in1007.5 mb - 0.00 in0.0 mm 0.00 in0.0 mm
04:10 PM 88.3°F31.3°C 75.9°F24.4°C 67% 6.9 mph SW11.1 kmh SW 10.4 mph16.7 kmh 29.76 in1007.8 mb - 0.00 in0.0 mm 0.00 in0.0 mm
04:20 PM 88.3°F31.3°C 76.4°F24.7°C 68% 5.8 mph SSW9.3 kmh SSW 9.2 mph14.8 kmh 29.76 in1007.8 mb - 0.00 in0.0 mm 0.00 in0.0 mm
04:30 PM 88.3°F31.3°C 76.4°F24.7°C 68% 5.8 mph SW9.3 kmh SW 12.7 mph20.4 kmh 29.77 in1008.1 mb - 0.00 in0.0 mm 0.00 in0.0 mm
04:50 PM 78.8°F26.0°C 71.4°F21.9°C 78% 10.4 mph SW16.7 kmh SW 12.7 mph20.4 kmh 29.80 in1009.1 mb - 0.00 in0.0 mm 0.00 in0.0 mm
05:00 PM 76.8°F24.9°C 71.2°F21.8°C 83% 9.2 mph WSW14.8 kmh WSW 11.5 mph18.5 kmh 29.80 in1009.1 mb - 0.00 in0.0 mm 0.00 in0.0 mm
05:10 PM 76.4°F24.7°C 71.6°F22.0°C 85% 4.6 mph WSW7.4 kmh WSW 10.4 mph16.7 kmh 29.81 in1009.5 mb - 0.00 in0.0 mm 0.00 in0.0 mm
05:20 PM 76.2°F24.6°C 71.7°F22.1°C 86% 3.5 mph SW5.6 kmh SW 3.5 mph5.6 kmh 29.80 in1009.1 mb - 0.00 in0.0 mm 0.00 in0.0 mm
05:30 PM 76.3°F24.6°C 71.4°F21.9°C 85% 2.3 mph WSW3.7 kmh WSW 5.8 mph9.3 kmh 29.80 in1009.1 mb - 0.00 in0.0 mm 0.00 in0.0 mm
05:40 PM 76.5°F24.7°C 71.3°F21.8°C 84% 3.5 mph WSW5.6 kmh WSW 8.1 mph13.0 kmh 29.80 in1009.1 mb - 0.00 in0.0 mm 0.00 in0.0 mm
05:50 PM 76.3°F24.6°C 71.1°F21.7°C 84% 3.5 mph SW5.6 kmh SW 6.9 mph11.1 kmh 29.81 in1009.5 mb - 0.00 in0.0 mm 0.00 in0.0 mm
06:00 PM 75.8°F24.3°C 71.0°F21.7°C 85% 4.6 mph SW7.4 kmh SW 5.8 mph9.3 kmh 29.81 in1009.5 mb - 0.00 in0.0 mm 0.00 in0.0 mm
06:10 PM 74.8°F23.8°C 70.7°F21.5°C 87% 3.5 mph SW5.6 kmh SW 6.9 mph11.1 kmh 29.80 in1009.1 mb - 0.01 in0.3 mm 0.01 in0.3 mm
06:20 PM 74.0°F23.3°C 70.6°F21.4°C 89% 1.2 mph SSW1.9 kmh SSW 2.3 mph3.7 kmh 29.81 in1009.5 mb - 0.02 in0.5 mm 0.03 in0.8 mm
06:30 PM 73.7°F23.2°C 70.6°F21.4°C 90% 2.3 mph S3.7 kmh S 3.5 mph5.6 kmh 29.82 in1009.8 mb - 0.01 in0.3 mm 0.04 in1.0 mm
06:40 PM 73.7°F23.2°C 70.6°F21.4°C 90% 3.5 mph SW5.6 kmh SW 3.5 mph5.6 kmh 29.82 in1009.8 mb - 0.01 in0.3 mm 0.05 in1.3 mm
06:50 PM 73.7°F23.2°C 70.9°F21.6°C 91% 3.5 mph SSW5.6 kmh SSW 4.6 mph7.4 kmh 29.82 in1009.8 mb - 0.01 in0.3 mm 0.06 in1.5 mm
07:00 PM 73.9°F23.3°C 71.1°F21.7°C 91% 2.3 mph S3.7 kmh S 3.5 mph5.6 kmh 29.80 in1009.1 mb - 0.01 in0.3 mm 0.07 in1.8 mm
07:10 PM 74.4°F23.6°C 71.9°F22.2°C 92% 2.3 mph SSW3.7 kmh SSW 4.6 mph7.4 kmh 29.80 in1009.1 mb - 0.00 in0.0 mm 0.07 in1.8 mm
07:20 PM 74.9°F23.8°C 72.4°F22.4°C 92% 2.3 mph S3.7 kmh S 3.5 mph5.6 kmh 29.80 in1009.1 mb - 0.00 in0.0 mm 0.07 in1.8 mm
07:30 PM 75.4°F24.1°C 72.9°F22.7°C 92% 2.3 mph SW3.7 kmh SW 3.5 mph5.6 kmh 29.80 in1009.1 mb - 0.00 in0.0 mm 0.07 in1.8 mm
07:40 PM 75.8°F24.3°C 73.0°F22.8°C 91% 2.3 mph S3.7 kmh S 3.5 mph5.6 kmh 29.80 in1009.1 mb - 0.00 in0.0 mm 0.07 in1.8 mm
07:50 PM 75.7°F24.3°C 72.9°F22.7°C 91% 2.3 mph S3.7 kmh S 3.5 mph5.6 kmh 29.80 in1009.1 mb - 0.00 in0.0 mm 0.07 in1.8 mm
08:00 PM 75.7°F24.3°C 72.9°F22.7°C 91% 1.2 mph S1.9 kmh S 3.5 mph5.6 kmh 29.81 in1009.5 mb - 0.00 in0.0 mm 0.07 in1.8 mm
08:10 PM 75.2°F24.0°C 72.4°F22.4°C 91% 2.3 mph S3.7 kmh S 4.6 mph7.4 kmh 29.82 in1009.8 mb - 0.00 in0.0 mm 0.07 in1.8 mm
08:20 PM 75.0°F23.9°C 72.2°F22.3°C 91% 4.6 mph S7.4 kmh S 4.6 mph7.4 kmh 29.82 in1009.8 mb - 0.00 in0.0 mm 0.07 in1.8 mm
08:30 PM 74.8°F23.8°C 72.0°F22.2°C 91% 2.3 mph S3.7 kmh S 3.5 mph5.6 kmh 29.82 in1009.8 mb - 0.00 in0.0 mm 0.07 in1.8 mm
08:40 PM 74.7°F23.7°C 71.9°F22.2°C 91% 2.3 mph S3.7 kmh S 4.6 mph7.4 kmh 29.83 in1010.2 mb - 0.00 in0.0 mm 0.07 in1.8 mm
08:50 PM 74.6°F23.7°C 71.8°F22.1°C 91% 1.2 mph SSW1.9 kmh SSW 2.3 mph3.7 kmh 29.82 in1009.8 mb - 0.00 in0.0 mm 0.07 in1.8 mm
09:00 PM 74.4°F23.6°C 71.6°F22.0°C 91% 2.3 mph SSW3.7 kmh SSW 3.5 mph5.6 kmh 29.83 in1010.2 mb - 0.00 in0.0 mm 0.07 in1.8 mm
09:10 PM 74.1°F23.4°C 71.6°F22.0°C 92% 2.3 mph SSW3.7 kmh SSW 4.6 mph7.4 kmh 29.84 in1010.5 mb - 0.00 in0.0 mm 0.07 in1.8 mm
09:20 PM 74.0°F23.3°C 71.5°F21.9°C 92% 2.3 mph SSW3.7 kmh SSW 3.5 mph5.6 kmh 29.84 in1010.5 mb - 0.00 in0.0 mm 0.07 in1.8 mm
09:30 PM 73.9°F23.3°C 71.1°F21.7°C 91% 3.5 mph SSW5.6 kmh SSW 5.8 mph9.3 kmh 29.84 in1010.5 mb - 0.00 in0.0 mm 0.07 in1.8 mm
09:40 PM 73.8°F23.2°C 71.3°F21.8°C 92% 1.2 mph SSW1.9 kmh SSW 3.5 mph5.6 kmh 29.84 in1010.5 mb - 0.00 in0.0 mm 0.07 in1.8 mm
09:50 PM 73.6°F23.1°C 71.1°F21.7°C 92% 3.5 mph SSW5.6 kmh SSW 4.6 mph7.4 kmh 29.84 in1010.5 mb - 0.00 in0.0 mm 0.07 in1.8 mm
10:00 PM 73.6°F23.1°C 71.1°F21.7°C 92% 2.3 mph SSW3.7 kmh SSW 5.8 mph9.3 kmh 29.84 in1010.5 mb - 0.00 in0.0 mm 0.07 in1.8 mm
10:10 PM 73.6°F23.1°C 70.8°F21.6°C 91% 3.5 mph S5.6 kmh S 4.6 mph7.4 kmh 29.85 in1010.8 mb - 0.00 in0.0 mm 0.07 in1.8 mm
10:20 PM 73.5°F23.1°C 70.7°F21.5°C 91% 1.2 mph SW1.9 kmh SW 2.3 mph3.7 kmh 29.86 in1011.2 mb - 0.00 in0.0 mm 0.07 in1.8 mm
10:30 PM 73.3°F22.9°C 70.8°F21.6°C 92% 2.3 mph SSW3.7 kmh SSW 4.6 mph7.4 kmh 29.87 in1011.5 mb - 0.00 in0.0 mm 0.07 in1.8 mm
10:40 PM 73.1°F22.8°C 70.3°F21.3°C 91% 2.3 mph S3.7 kmh S 4.6 mph7.4 kmh 29.87 in1011.5 mb - 0.00 in0.0 mm 0.07 in1.8 mm
10:50 PM 73.0°F22.8°C 70.2°F21.2°C 91% 3.5 mph SSW5.6 kmh SSW 5.8 mph9.3 kmh 29.87 in1011.5 mb - 0.00 in0.0 mm 0.07 in1.8 mm
11:00 PM 73.0°F22.8°C 70.2°F21.2°C 91% 1.2 mph SW1.9 kmh SW 2.3 mph3.7 kmh 29.87 in1011.5 mb - 0.00 in0.0 mm 0.07 in1.8 mm
11:10 PM 72.8°F22.7°C 70.0°F21.1°C 91% 2.3 mph SSW3.7 kmh SSW 3.5 mph5.6 kmh 29.88 in1011.9 mb - 0.00 in0.0 mm 0.07 in1.8 mm
11:20 PM 72.6°F22.6°C 69.8°F21.0°C 91% 3.5 mph SW5.6 kmh SW 4.6 mph7.4 kmh 29.88 in1011.9 mb - 0.00 in0.0 mm 0.07 in1.8 mm
11:30 PM 72.5°F22.5°C 69.7°F20.9°C 91% 2.3 mph SSW3.7 kmh SSW 6.9 mph11.1 kmh 29.88 in1011.9 mb - 0.00 in0.0 mm 0.07 in1.8 mm
11:40 PM 72.5°F22.5°C 69.7°F20.9°C 91% 1.2 mph SW1.9 kmh SW 3.5 mph5.6 kmh 29.88 in1011.9 mb - 0.00 in0.0 mm 0.07 in1.8 mm
11:50 PM 72.4°F22.4°C 69.6°F20.9°C 91% 1.2 mph SW1.9 kmh SW 1.2 mph1.9 kmh 29.88 in1011.9 mb - 0.00 in0.0 mm 0.07 in1.8 mm